Burbank, Utah
Current Conditions -  °F | °C
As of 10:52 PM on Tuesday 27 Jan 2015 (Local Time) from KMLF Reporting Station
Clear Clear  
Wind Chill: 30°   Ceiling: Unl
Heat Index: 38°   Visibility: 10mi
Dew Point: 33°   Wind: 12mph
Humidity: 83%   Direction: 190°S
Pressure: 30.23"   Gusts: NA
Location:  38.3622°N, 113.404°W
Report Text: KMLF 280552Z AUTO 19010KT 10SM CLR 03/01 A3023 RMK AO2 SLP228 T00330006 10117 20033 53002 TSNO
Loading
Personal Weather Stations






























Interactive Weather Map New forecast layout! Learn more

10-Day Weather Forecast

Advertisements
Track Severe Weather on mobile